Time;durP1;ratioP1;P1;durP2;ratioP2;P2;SDS_P1;SDS_P2;PMS_P1;PMS_P2;Temp;Humidity;BMP_temperature;BMP_pressure;BME280_temperature;BME280_humidity;BME280_pressure;Samples;Min_cycle;Max_cycle;Signal;HPM_P1;HPM_P2
2023/04/21 00:01:07;;;;;;;25.83;18.25;;;;;;;;;;4835282;29;20042;-75
2023/04/21 00:03:36;;;;;;;28.20;17.70;;;;;;;;;;4841765;29;20476;-77
2023/04/21 00:06:05;;;;;;;31.33;19.58;;;;;;;;;;4854652;29;20057;-76
2023/04/21 00:08:31;;;;;;;28.10;18.42;;;;;;;;;;4852110;29;20449;-76
2023/04/21 00:10:57;;;;;;;30.67;17.73;;;;;;;;;;4841514;29;20044;-74
2023/04/21 00:13:23;;;;;;;31.58;18.27;;;;;;;;;;4857066;29;20053;-77
2023/04/21 00:15:50;;;;;;;25.33;16.92;;;;;;;;;;4854726;29;20033;-77
2023/04/21 00:18:16;;;;;;;24.35;17.52;;;;;;;;;;4849657;29;20359;-78
2023/04/21 00:20:43;;;;;;;26.48;15.98;;;;;;;;;;4853188;29;20037;-77
2023/04/21 00:23:10;;;;;;;24.73;15.63;;;;;;;;;;4850879;29;20088;-78
2023/04/21 00:25:36;;;;;;;27.45;16.30;;;;;;;;;;4851577;29;20033;-77
2023/04/21 00:28:03;;;;;;;23.23;15.10;;;;;;;;;;4856875;29;20066;-77
2023/04/21 00:30:29;;;;;;;24.58;15.25;;;;;;;;;;4837390;29;20372;-77
2023/04/21 00:32:55;;;;;;;21.83;14.60;;;;;;;;;;4855089;29;20045;-77
2023/04/21 00:35:21;;;;;;;26.02;14.82;;;;;;;;;;4852729;29;20030;-77
2023/04/21 00:37:49;;;;;;;23.35;15.18;;;;;;;;;;4854717;29;20033;-77
2023/04/21 00:40:15;;;;;;;22.95;14.57;;;;;;;;;;4858183;29;20076;-77
2023/04/21 00:42:41;;;;;;;25.42;15.25;;;;;;;;;;4856958;29;20125;-77
2023/04/21 00:45:08;;;;;;;24.65;13.90;;;;;;;;;;4853880;29;20083;-77
2023/04/21 00:47:34;;;;;;;21.05;13.43;;;;;;;;;;4844316;29;20026;-77
2023/04/21 00:50:00;;;;;;;24.35;13.88;;;;;;;;;;4850598;29;20113;-77
2023/04/21 00:52:26;;;;;;;19.50;12.60;;;;;;;;;;4855920;29;20042;-76
2023/04/21 00:54:53;;;;;;;24.92;14.10;;;;;;;;;;4856325;29;20581;-76
2023/04/21 00:57:20;;;;;;;23.25;14.52;;;;;;;;;;4854762;29;20037;-76
2023/04/21 00:59:46;;;;;;;21.60;13.65;;;;;;;;;;4855968;29;20042;-77
2023/04/21 01:02:14;;;;;;;27.88;13.68;;;;;;;;;;4841080;29;20368;-78
2023/04/21 01:04:40;;;;;;;26.02;12.90;;;;;;;;;;4853845;29;20049;-77
2023/04/21 01:07:08;;;;;;;20.80;13.52;;;;;;;;;;4840544;29;20034;-77
2023/04/21 01:09:35;;;;;;;20.25;13.32;;;;;;;;;;4845671;29;20094;-77
2023/04/21 01:12:05;;;;;;;23.95;13.38;;;;;;;;;;4853668;29;20427;-77
2023/04/21 01:14:31;;;;;;;24.17;13.25;;;;;;;;;;4843262;29;20038;-76
2023/04/21 01:16:58;;;;;;;23.70;13.90;;;;;;;;;;4860323;29;20374;-76
2023/04/21 01:19:24;;;;;;;21.75;13.57;;;;;;;;;;4864517;29;20042;-76
2023/04/21 01:21:52;;;;;;;22.77;14.52;;;;;;;;;;4857705;29;20408;-76
2023/04/21 01:24:19;;;;;;;26.73;13.80;;;;;;;;;;4867122;29;20044;-76
2023/04/21 01:26:48;;;;;;;26.17;14.70;;;;;;;;;;4859561;29;20072;-76
2023/04/21 01:29:15;;;;;;;23.50;13.65;;;;;;;;;;4869098;29;20117;-77
2023/04/21 01:31:41;;;;;;;20.15;13.77;;;;;;;;;;4851912;29;20099;-77
2023/04/21 01:34:07;;;;;;;22.52;13.02;;;;;;;;;;4862512;29;20037;-77
2023/04/21 01:36:36;;;;;;;23.60;13.32;;;;;;;;;;4864428;29;20049;-77
2023/04/21 01:39:03;;;;;;;22.83;13.90;;;;;;;;;;4866532;29;20033;-78
2023/04/21 01:41:29;;;;;;;21.35;13.10;;;;;;;;;;4857567;29;20046;-77
2023/04/21 01:43:55;;;;;;;26.63;13.55;;;;;;;;;;4859176;29;20041;-78
2023/04/21 01:46:21;;;;;;;18.30;12.02;;;;;;;;;;4844226;29;20452;-77
2023/04/21 01:48:47;;;;;;;22.05;12.50;;;;;;;;;;4859776;29;20048;-76
2023/04/21 01:51:13;;;;;;;19.40;12.73;;;;;;;;;;4853392;29;20112;-77
2023/04/21 01:53:39;;;;;;;25.73;13.75;;;;;;;;;;4853478;29;20407;-76
2023/04/21 01:56:06;;;;;;;20.20;12.57;;;;;;;;;;4854821;29;20033;-77
2023/04/21 01:58:32;;;;;;;21.35;13.00;;;;;;;;;;4845168;29;20317;-77
2023/04/21 02:00:58;;;;;;;17.48;12.23;;;;;;;;;;4852092;29;20049;-76
2023/04/21 02:03:24;;;;;;;21.67;13.05;;;;;;;;;;4842777;29;20042;-77
2023/04/21 02:05:50;;;;;;;24.92;13.45;;;;;;;;;;4854667;29;20034;-77
2023/04/21 02:08:16;;;;;;;21.23;12.30;;;;;;;;;;4856837;29;20038;-78
2023/04/21 02:10:42;;;;;;;21.95;12.40;;;;;;;;;;4856904;29;20066;-77
2023/04/21 02:13:12;;;;;;;17.50;11.75;;;;;;;;;;4856085;29;20033;-77
2023/04/21 02:15:38;;;;;;;17.42;11.50;;;;;;;;;;4856293;29;20050;-77
2023/04/21 02:18:05;;;;;;;26.77;12.68;;;;;;;;;;4846235;29;20165;-76
2023/04/21 02:20:31;;;;;;;20.75;12.00;;;;;;;;;;4859559;29;20064;-77
2023/04/21 02:22:57;;;;;;;22.70;12.60;;;;;;;;;;4845685;29;20517;-77
2023/04/21 02:25:24;;;;;;;20.75;13.07;;;;;;;;;;4859114;29;20094;-77
2023/04/21 02:27:50;;;;;;;24.55;14.63;;;;;;;;;;4858266;29;20053;-76
2023/04/21 02:30:16;;;;;;;22.73;12.80;;;;;;;;;;4859529;29;20495;-77
2023/04/21 02:32:42;;;;;;;22.70;12.32;;;;;;;;;;4846222;29;20052;-77
2023/04/21 02:35:09;;;;;;;17.67;12.02;;;;;;;;;;4860020;29;20046;-77
2023/04/21 02:37:35;;;;;;;18.35;11.63;;;;;;;;;;4852526;29;20044;-76
2023/04/21 02:40:01;;;;;;;18.15;11.95;;;;;;;;;;4868235;29;20505;-77
2023/04/21 02:42:27;;;;;;;21.85;12.20;;;;;;;;;;4845034;29;20038;-77
2023/04/21 02:44:53;;;;;;;22.20;12.07;;;;;;;;;;4859430;29;20030;-76
2023/04/21 02:47:19;;;;;;;21.15;11.55;;;;;;;;;;4846932;29;20033;-77
2023/04/21 02:49:45;;;;;;;23.92;12.02;;;;;;;;;;4848592;29;20642;-77
2023/04/21 02:52:11;;;;;;;18.42;12.57;;;;;;;;;;4852729;29;20100;-77
2023/04/21 02:54:37;;;;;;;18.05;10.80;;;;;;;;;;4857940;29;20072;-76
2023/04/21 02:57:04;;;;;;;19.58;12.20;;;;;;;;;;4860408;29;20466;-74
2023/04/21 02:59:30;;;;;;;19.75;11.20;;;;;;;;;;4839790;29;20046;-76
2023/04/21 03:01:56;;;;;;;20.75;12.00;;;;;;;;;;4854590;29;20109;-77
2023/04/21 03:04:24;;;;;;;25.98;14.57;;;;;;;;;;4855064;29;20417;-77
2023/04/21 03:06:50;;;;;;;22.02;11.82;;;;;;;;;;4850765;29;20065;-77
2023/04/21 03:09:16;;;;;;;19.77;11.82;;;;;;;;;;4848369;29;20505;-77
2023/04/21 03:11:42;;;;;;;20.48;12.30;;;;;;;;;;4854924;29;20502;-78
2023/04/21 03:14:08;;;;;;;22.45;12.48;;;;;;;;;;4858427;29;20026;-77
2023/04/21 03:16:34;;;;;;;22.23;12.73;;;;;;;;;;4857586;29;20037;-76
2023/04/21 03:19:01;;;;;;;18.25;11.77;;;;;;;;;;4871351;29;20041;-76
2023/04/21 03:21:27;;;;;;;27.70;12.73;;;;;;;;;;4810139;29;20577;-76
2023/04/21 03:23:53;;;;;;;19.55;12.52;;;;;;;;;;4838037;29;20435;-76
2023/04/21 03:26:19;;;;;;;21.77;12.48;;;;;;;;;;4854167;29;20037;-76
2023/04/21 03:28:45;;;;;;;24.38;12.85;;;;;;;;;;4859018;29;20037;-76
2023/04/21 03:31:11;;;;;;;25.02;12.90;;;;;;;;;;4839894;29;20029;-77
2023/04/21 03:33:37;;;;;;;23.17;13.25;;;;;;;;;;4855823;29;20471;-76
2023/04/21 03:36:03;;;;;;;23.20;12.90;;;;;;;;;;4856756;29;20489;-77
2023/04/21 03:38:29;;;;;;;25.45;12.43;;;;;;;;;;4858627;29;20494;-76
2023/04/21 03:40:56;;;;;;;25.90;13.10;;;;;;;;;;4854472;29;20056;-77
2023/04/21 03:43:22;;;;;;;23.83;13.30;;;;;;;;;;4856337;29;20078;-77
2023/04/21 03:45:48;;;;;;;23.15;12.88;;;;;;;;;;4840897;29;20395;-76
2023/04/21 03:48:14;;;;;;;19.20;11.98;;;;;;;;;;4863807;29;20041;-77
2023/04/21 03:50:40;;;;;;;22.15;12.32;;;;;;;;;;4856571;29;20089;-76
2023/04/21 03:53:06;;;;;;;19.25;11.50;;;;;;;;;;4845925;29;20037;-76
2023/04/21 03:55:32;;;;;;;22.88;13.73;;;;;;;;;;4847666;29;20033;-77
2023/04/21 03:57:58;;;;;;;18.35;11.35;;;;;;;;;;4853182;29;20089;-77
2023/04/21 04:00:24;;;;;;;25.75;12.40;;;;;;;;;;4856280;29;21247;-76
2023/04/21 04:02:50;;;;;;;16.08;11.30;;;;;;;;;;4858975;29;20057;-76
2023/04/21 04:05:16;;;;;;;21.48;12.48;;;;;;;;;;4860559;29;20060;-76
2023/04/21 04:07:43;;;;;;;26.67;12.40;;;;;;;;;;4853874;29;20406;-76
2023/04/21 04:10:10;;;;;;;25.25;11.73;;;;;;;;;;4849580;29;20514;-83
2023/04/21 04:12:36;;;;;;;19.17;11.98;;;;;;;;;;4844622;29;20055;-82
2023/04/21 04:15:02;;;;;;;22.63;12.20;;;;;;;;;;4855731;29;20038;-79
2023/04/21 04:17:28;;;;;;;19.08;11.18;;;;;;;;;;4844498;29;20041;-83
2023/04/21 04:19:55;;;;;;;21.17;11.70;;;;;;;;;;4847372;29;20046;-82
2023/04/21 04:22:21;;;;;;;18.98;11.23;;;;;;;;;;4849901;29;20116;-80
2023/04/21 04:24:47;;;;;;;30.65;15.45;;;;;;;;;;4849039;29;20026;-75
2023/04/21 04:27:13;;;;;;;20.38;12.60;;;;;;;;;;4840339;29;20054;-74
2023/04/21 04:29:40;;;;;;;21.08;12.50;;;;;;;;;;4851114;29;20056;-78
2023/04/21 04:32:08;;;;;;;21.48;10.80;;;;;;;;;;4846942;29;20251;-85
2023/04/21 04:34:36;;;;;;;20.50;11.18;;;;;;;;;;4865183;29;20041;-86
2023/04/21 04:37:03;;;;;;;18.88;10.93;;;;;;;;;;4851711;29;20082;-83
2023/04/21 04:39:30;;;;;;;20.25;11.23;;;;;;;;;;4860932;29;20127;-77
2023/04/21 04:41:56;;;;;;;21.65;11.55;;;;;;;;;;4843742;29;20029;-76
2023/04/21 04:44:24;;;;;;;22.42;10.70;;;;;;;;;;4852547;29;20049;-82
2023/04/21 04:46:51;;;;;;;18.63;10.82;;;;;;;;;;4851254;29;20037;-79
2023/04/21 04:49:17;;;;;;;19.63;11.52;;;;;;;;;;4855595;29;20029;-75
2023/04/21 04:51:43;;;;;;;20.10;9.95;;;;;;;;;;4848754;29;20069;-79
2023/04/21 04:54:09;;;;;;;20.75;12.93;;;;;;;;;;4853053;29;20029;-80
2023/04/21 04:56:36;;;;;;;18.77;10.93;;;;;;;;;;4853874;29;20458;-80
2023/04/21 04:59:02;;;;;;;19.77;11.60;;;;;;;;;;4850783;29;20594;-77
2023/04/21 05:01:29;;;;;;;17.10;10.73;;;;;;;;;;4841957;29;20059;-79
2023/04/21 05:03:56;;;;;;;18.08;10.90;;;;;;;;;;4845906;29;20060;-74
2023/04/21 05:06:22;;;;;;;27.30;11.85;;;;;;;;;;4847902;29;20060;-72
2023/04/21 05:08:48;;;;;;;22.15;12.15;;;;;;;;;;4856231;29;20038;-72
2023/04/21 05:11:14;;;;;;;19.88;11.88;;;;;;;;;;4854994;29;20410;-75
2023/04/21 05:13:40;;;;;;;19.83;10.10;;;;;;;;;;4853286;29;20033;-80
2023/04/21 05:16:08;;;;;;;15.98;10.98;;;;;;;;;;4849629;29;20580;-82
2023/04/21 05:18:34;;;;;;;23.27;11.07;;;;;;;;;;4850242;29;20030;-81
2023/04/21 05:21:00;;;;;;;21.40;9.68;;;;;;;;;;4850165;29;20034;-81
2023/04/21 05:23:26;;;;;;;21.20;10.35;;;;;;;;;;4848377;29;20791;-81
2023/04/21 05:25:52;;;;;;;18.10;9.65;;;;;;;;;;4850221;29;20034;-80
2023/04/21 05:28:18;;;;;;;16.23;10.13;;;;;;;;;;4853031;29;20026;-81
2023/04/21 05:30:45;;;;;;;17.42;10.90;;;;;;;;;;4857911;29;20515;-79
2023/04/21 05:33:11;;;;;;;20.17;11.68;;;;;;;;;;4826831;29;20045;-79
2023/04/21 05:35:37;;;;;;;21.33;10.00;;;;;;;;;;4858384;29;20045;-80
2023/04/21 05:38:03;;;;;;;28.42;10.43;;;;;;;;;;4855344;29;20040;-81
2023/04/21 05:40:29;;;;;;;19.90;10.35;;;;;;;;;;4838768;29;20098;-79
2023/04/21 05:42:55;;;;;;;18.05;9.75;;;;;;;;;;4855762;29;20034;-76
2023/04/21 05:45:21;;;;;;;16.92;9.20;;;;;;;;;;4856784;29;20038;-75
2023/04/21 05:47:47;;;;;;;21.23;9.38;;;;;;;;;;4845586;29;20030;-75
2023/04/21 05:50:13;;;;;;;20.98;9.82;;;;;;;;;;4849572;29;20049;-76
2023/04/21 05:52:39;;;;;;;16.35;10.07;;;;;;;;;;4851869;29;20124;-76
2023/04/21 05:55:06;;;;;;;16.98;9.13;;;;;;;;;;4853901;29;20069;-77
2023/04/21 05:57:32;;;;;;;18.38;9.48;;;;;;;;;;4856525;29;20033;-79
2023/04/21 05:59:58;;;;;;;43.38;19.70;;;;;;;;;;4855780;29;20049;-76
2023/04/21 06:02:24;;;;;;;27.88;14.82;;;;;;;;;;4857986;29;20165;-74
2023/04/21 06:04:50;;;;;;;14.27;9.10;;;;;;;;;;4856710;29;20418;-79
2023/04/21 06:07:17;;;;;;;20.48;10.15;;;;;;;;;;4857342;29;20041;-76
2023/04/21 06:09:44;;;;;;;17.02;9.48;;;;;;;;;;4843568;29;20406;-74
2023/04/21 06:12:10;;;;;;;15.75;9.80;;;;;;;;;;4856368;29;20424;-76
2023/04/21 06:14:36;;;;;;;20.55;10.50;;;;;;;;;;4853161;29;20045;-77
2023/04/21 06:17:02;;;;;;;19.90;10.02;;;;;;;;;;4840869;29;20037;-74
2023/04/21 06:19:28;;;;;;;14.23;8.98;;;;;;;;;;4851103;29;20038;-75
2023/04/21 06:21:56;;;;;;;14.75;8.60;;;;;;;;;;4866503;29;20046;-75
2023/04/21 06:24:24;;;;;;;17.08;8.27;;;;;;;;;;4856453;29;20049;-74
2023/04/21 06:26:51;;;;;;;16.20;8.90;;;;;;;;;;4858250;29;20738;-73
2023/04/21 06:29:18;;;;;;;19.08;9.63;;;;;;;;;;4849813;29;20034;-76
2023/04/21 06:31:44;;;;;;;17.58;8.43;;;;;;;;;;4849998;29;20109;-75
2023/04/21 06:34:10;;;;;;;19.92;7.97;;;;;;;;;;4849960;29;20041;-75
2023/04/21 06:36:36;;;;;;;15.55;8.45;;;;;;;;;;4848739;29;20077;-75
2023/04/21 06:39:03;;;;;;;18.08;8.25;;;;;;;;;;4853511;29;20041;-79
2023/04/21 06:41:29;;;;;;;17.25;7.57;;;;;;;;;;4855920;29;20439;-78
2023/04/21 06:43:55;;;;;;;14.80;8.23;;;;;;;;;;4835998;29;20046;-74
2023/04/21 06:46:22;;;;;;;19.60;8.55;;;;;;;;;;4851761;29;20068;-74
2023/04/21 06:48:48;;;;;;;16.90;7.65;;;;;;;;;;4855823;29;20046;-74
2023/04/21 06:51:14;;;;;;;20.90;8.23;;;;;;;;;;4858293;29;20578;-75
2023/04/21 06:53:40;;;;;;;14.40;7.75;;;;;;;;;;4853657;29;20038;-75
2023/04/21 06:56:06;;;;;;;20.40;8.30;;;;;;;;;;4854608;29;20514;-79
2023/04/21 06:58:32;;;;;;;21.60;11.18;;;;;;;;;;4850504;29;20399;-80
2023/04/21 07:00:58;;;;;;;17.80;9.13;;;;;;;;;;4839356;29;20037;-76
2023/04/21 07:03:24;;;;;;;13.95;8.40;;;;;;;;;;4850429;29;20073;-76
2023/04/21 07:05:50;;;;;;;16.92;8.27;;;;;;;;;;4851889;29;20112;-78
2023/04/21 07:08:16;;;;;;;20.17;7.65;;;;;;;;;;4842245;29;20045;-77
2023/04/21 07:10:43;;;;;;;14.80;9.00;;;;;;;;;;4859939;29;20339;-74
2023/04/21 07:13:09;;;;;;;17.60;8.38;;;;;;;;;;4856909;29;20116;-76
2023/04/21 07:15:35;;;;;;;16.08;7.75;;;;;;;;;;4855686;29;20033;-78
2023/04/21 07:18:01;;;;;;;16.48;8.05;;;;;;;;;;4852913;29;20375;-76
2023/04/21 07:20:27;;;;;;;14.75;8.48;;;;;;;;;;4839282;29;20034;-75
2023/04/21 07:22:54;;;;;;;18.10;9.13;;;;;;;;;;4848741;29;20059;-76
2023/04/21 07:25:20;;;;;;;14.80;8.00;;;;;;;;;;4855143;29;20026;-76
2023/04/21 07:27:46;;;;;;;13.77;7.47;;;;;;;;;;4843610;29;20038;-77
2023/04/21 07:30:12;;;;;;;13.18;7.82;;;;;;;;;;4862114;29;20032;-77
2023/04/21 07:32:38;;;;;;;19.88;8.75;;;;;;;;;;4845730;29;20041;-77
2023/04/21 07:35:05;;;;;;;17.77;7.78;;;;;;;;;;4850660;29;20082;-78
2023/04/21 07:37:31;;;;;;;14.40;8.10;;;;;;;;;;4852974;29;20093;-78
2023/04/21 07:39:57;;;;;;;19.35;8.40;;;;;;;;;;4852698;29;20037;-75
2023/04/21 07:42:25;;;;;;;23.60;8.93;;;;;;;;;;4844453;29;20036;-77
2023/04/21 07:44:51;;;;;;;13.50;7.45;;;;;;;;;;4849265;29;20031;-77
2023/04/21 07:47:18;;;;;;;21.13;8.50;;;;;;;;;;4855765;29;20037;-77
2023/04/21 07:49:44;;;;;;;16.00;7.82;;;;;;;;;;4853372;29;20030;-77
2023/04/21 07:52:10;;;;;;;17.10;9.10;;;;;;;;;;4847959;29;20058;-77
2023/04/21 07:54:36;;;;;;;26.70;8.07;;;;;;;;;;4855814;29;20037;-78
2023/04/21 07:57:02;;;;;;;16.17;7.47;;;;;;;;;;4848226;29;20475;-77
2023/04/21 07:59:29;;;;;;;19.05;9.18;;;;;;;;;;4854774;29;20037;-76
2023/04/21 08:01:55;;;;;;;30.95;15.55;;;;;;;;;;4851736;29;20573;-77
2023/04/21 08:04:21;;;;;;;19.80;10.15;;;;;;;;;;4852339;29;20084;-74
2023/04/21 08:06:47;;;;;;;21.05;9.00;;;;;;;;;;4843678;29;20033;-73
2023/04/21 08:09:13;;;;;;;14.30;8.68;;;;;;;;;;4839257;29;20052;-79
2023/04/21 08:11:39;;;;;;;12.30;7.32;;;;;;;;;;4836792;29;20038;-77
2023/04/21 08:14:08;;;;;;;13.98;7.82;;;;;;;;;;4836599;29;20136;-78
2023/04/21 08:16:34;;;;;;;15.40;7.45;;;;;;;;;;4856333;29;20022;-78
2023/04/21 08:19:03;;;;;;;17.20;7.57;;;;;;;;;;4857048;29;20030;-76
2023/04/21 08:21:30;;;;;;;15.38;7.65;;;;;;;;;;4847874;29;20045;-76
2023/04/21 08:23:56;;;;;;;13.73;7.80;;;;;;;;;;4855467;29;20423;-76
2023/04/21 08:26:24;;;;;;;15.77;7.35;;;;;;;;;;4863909;29;20030;-77
2023/04/21 08:28:51;;;;;;;17.77;8.75;;;;;;;;;;4856609;29;20037;-79
2023/04/21 08:31:18;;;;;;;14.05;7.80;;;;;;;;;;4855205;29;20049;-79
2023/04/21 08:33:45;;;;;;;16.10;8.18;;;;;;;;;;4855577;29;20029;-77
2023/04/21 08:36:11;;;;;;;15.55;8.32;;;;;;;;;;4855665;29;20030;-77
2023/04/21 08:38:37;;;;;;;12.75;7.72;;;;;;;;;;4849118;29;20375;-76
2023/04/21 08:41:04;;;;;;;16.38;7.43;;;;;;;;;;4841870;29;20097;-78
2023/04/21 08:43:30;;;;;;;12.07;6.65;;;;;;;;;;4856356;29;20599;-78
2023/04/21 08:45:56;;;;;;;18.15;7.63;;;;;;;;;;4858943;29;20037;-78
2023/04/21 08:48:23;;;;;;;15.02;7.95;;;;;;;;;;4852365;29;20431;-79
2023/04/21 08:50:50;;;;;;;14.23;7.32;;;;;;;;;;4858158;29;20048;-79
2023/04/21 08:53:17;;;;;;;11.40;7.22;;;;;;;;;;4849882;29;20779;-78
2023/04/21 08:55:43;;;;;;;18.73;8.25;;;;;;;;;;4856857;29;20529;-78
2023/04/21 08:58:10;;;;;;;16.42;7.60;;;;;;;;;;4851520;29;20029;-78
2023/04/21 09:00:40;;;;;;;13.23;6.82;;;;;;;;;;4855301;29;20037;-79
2023/04/21 09:03:07;;;;;;;17.52;7.63;;;;;;;;;;4849903;29;20033;-79
2023/04/21 09:05:33;;;;;;;13.13;7.00;;;;;;;;;;4858594;29;20054;-80
2023/04/21 09:08:13;;;;;;;12.55;7.25;;;;;;;;;;4833280;29;20123;-79
2023/04/21 09:10:46;;;;;;;12.50;6.88;;;;;;;;;;4852807;29;20038;-78
2023/04/21 09:13:12;;;;;;;16.88;7.78;;;;;;;;;;4859092;29;20061;-79
2023/04/21 09:15:42;;;;;;;13.88;7.47;;;;;;;;;;4861033;29;20041;-79
2023/04/21 09:18:16;;;;;;;15.70;8.15;;;;;;;;;;4844213;29;20036;-79
2023/04/21 09:20:43;;;;;;;14.82;8.18;;;;;;;;;;4839752;29;20141;-78
2023/04/21 09:23:10;;;;;;;18.25;7.35;;;;;;;;;;4837490;29;20032;-79
2023/04/21 09:25:38;;;;;;;13.07;7.57;;;;;;;;;;4856151;29;20087;-79
2023/04/21 09:28:12;;;;;;;14.32;7.47;;;;;;;;;;4855517;29;20379;-79
2023/04/21 09:30:39;;;;;;;16.05;7.47;;;;;;;;;;4853879;29;20046;-79
2023/04/21 09:33:05;;;;;;;14.02;7.25;;;;;;;;;;4851883;29;20033;-76
2023/04/21 09:35:35;;;;;;;13.38;7.25;;;;;;;;;;4854117;29;20018;-79
2023/04/21 09:38:02;;;;;;;17.90;7.00;;;;;;;;;;4855824;29;20112;-79
2023/04/21 09:40:29;;;;;;;20.55;8.40;;;;;;;;;;4851646;29;20146;-77
2023/04/21 09:42:56;;;;;;;14.60;8.23;;;;;;;;;;4850177;29;20464;-78
2023/04/21 09:45:25;;;;;;;14.73;7.78;;;;;;;;;;4866463;29;20052;-80
2023/04/21 09:47:54;;;;;;;13.95;7.30;;;;;;;;;;4853135;29;20029;-79
2023/04/21 09:50:21;;;;;;;12.68;7.22;;;;;;;;;;4859805;29;20483;-77
2023/04/21 09:52:50;;;;;;;15.25;6.80;;;;;;;;;;4851459;29;20034;-78
2023/04/21 09:55:17;;;;;;;12.48;7.57;;;;;;;;;;4858183;29;20116;-77
2023/04/21 09:57:44;;;;;;;17.15;7.38;;;;;;;;;;4850902;29;20110;-78
2023/04/21 10:00:12;;;;;;;13.40;7.13;;;;;;;;;;4859064;29;20030;-79
2023/04/21 10:02:42;;;;;;;13.60;6.70;;;;;;;;;;4851197;29;20049;-79
2023/04/21 10:05:09;;;;;;;21.80;7.20;;;;;;;;;;4845903;29;20079;-79
2023/04/21 10:07:35;;;;;;;15.25;8.02;;;;;;;;;;4848267;29;20038;-78
2023/04/21 10:10:02;;;;;;;14.75;7.72;;;;;;;;;;4850200;29;20045;-73
2023/04/21 10:12:28;;;;;;;16.05;8.48;;;;;;;;;;4858660;29;20029;-74
2023/04/21 10:14:55;;;;;;;12.07;7.40;;;;;;;;;;4844154;29;20038;-72
2023/04/21 10:17:25;;;;;;;17.67;7.70;;;;;;;;;;4854281;29;20633;-78
2023/04/21 10:19:52;;;;;;;16.00;6.93;;;;;;;;;;4866630;29;20403;-77
2023/04/21 10:22:27;;;;;;;13.20;7.93;;;;;;;;;;4859997;29;20038;-75
2023/04/21 10:24:58;;;;;;;11.45;6.80;;;;;;;;;;4860621;29;20045;-77
2023/04/21 10:27:50;;;;;;;12.80;6.95;;;;;;;;;;4852798;29;20056;-75
2023/04/21 10:30:19;;;;;;;11.82;6.95;;;;;;;;;;4848211;29;20081;-75
2023/04/21 10:32:46;;;;;;;19.52;7.60;;;;;;;;;;4852695;29;20092;-76
2023/04/21 10:35:16;;;;;;;17.05;6.97;;;;;;;;;;4825497;29;20049;-76
2023/04/21 10:37:43;;;;;;;15.10;6.57;;;;;;;;;;4849586;29;20117;-76
2023/04/21 10:40:28;;;;;;;21.20;7.45;;;;;;;;;;4846835;29;20042;-75
2023/04/21 10:42:54;;;;;;;16.85;6.75;;;;;;;;;;4851730;29;20049;-75
2023/04/21 10:45:24;;;;;;;15.15;6.50;;;;;;;;;;4833951;29;20439;-77
2023/04/21 10:47:52;;;;;;;13.27;6.85;;;;;;;;;;4855236;29;20044;-75
2023/04/21 10:50:21;;;;;;;20.30;7.07;;;;;;;;;;4854382;29;20034;-77
2023/04/21 10:52:58;;;;;;;12.98;8.20;;;;;;;;;;4852846;29;20404;-78
2023/04/21 10:55:28;;;;;;;14.57;8.40;;;;;;;;;;4842760;29;20479;-80
2023/04/21 10:57:54;;;;;;;17.55;6.97;;;;;;;;;;4844831;29;20121;-76
2023/04/21 11:00:21;;;;;;;16.83;7.68;;;;;;;;;;4854299;29;20080;-76
2023/04/21 11:02:55;;;;;;;15.65;6.43;;;;;;;;;;4857068;29;20090;-78
2023/04/21 11:05:27;;;;;;;13.60;6.40;;;;;;;;;;4847837;29;20060;-78
2023/04/21 11:08:01;;;;;;;11.00;6.75;;;;;;;;;;4855421;29;20398;-78
2023/04/21 11:10:27;;;;;;;13.63;6.70;;;;;;;;;;4850804;29;20163;-78
2023/04/21 11:12:56;;;;;;;14.90;7.20;;;;;;;;;;4853267;29;20652;-79
2023/04/21 11:15:22;;;;;;;17.77;7.25;;;;;;;;;;4842926;29;20034;-78
2023/04/21 11:17:49;;;;;;;14.10;6.70;;;;;;;;;;4856456;29;20046;-78
2023/04/21 11:20:15;;;;;;;19.13;6.25;;;;;;;;;;4860737;29;20069;-77
2023/04/21 11:22:41;;;;;;;16.00;6.97;;;;;;;;;;4857778;29;20037;-76
2023/04/21 11:25:16;;;;;;;15.38;7.22;;;;;;;;;;4856828;29;20026;-77
2023/04/21 11:27:42;;;;;;;12.93;7.20;;;;;;;;;;4850567;29;20080;-77
2023/04/21 11:30:09;;;;;;;14.10;6.22;;;;;;;;;;4859913;29;20041;-77
2023/04/21 11:32:35;;;;;;;18.90;7.82;;;;;;;;;;4846024;29;20046;-77
2023/04/21 11:35:01;;;;;;;20.33;7.80;;;;;;;;;;4843820;29;20072;-77
2023/04/21 11:37:27;;;;;;;11.90;6.32;;;;;;;;;;4843410;29;20139;-77
2023/04/21 11:39:57;;;;;;;10.95;6.95;;;;;;;;;;4859420;29;20535;-77
2023/04/21 11:42:23;;;;;;;12.68;7.57;;;;;;;;;;4848831;29;20070;-78
2023/04/21 11:44:49;;;;;;;7.97;5.53;;;;;;;;;;4869523;29;20154;-77
2023/04/21 11:47:16;;;;;;;9.73;6.70;;;;;;;;;;4839399;29;20037;-77
2023/04/21 11:49:46;;;;;;;17.33;6.68;;;;;;;;;;4859471;29;20116;-77
2023/04/21 11:52:20;;;;;;;16.27;6.68;;;;;;;;;;4857008;29;20506;-77
2023/04/21 11:54:55;;;;;;;10.88;6.53;;;;;;;;;;4856590;29;20034;-77
2023/04/21 11:57:23;;;;;;;9.27;5.57;;;;;;;;;;4849934;29;20045;-78
2023/04/21 11:59:49;;;;;;;16.13;6.50;;;;;;;;;;4853837;29;20052;-78
2023/04/21 12:02:23;;;;;;;11.75;5.95;;;;;;;;;;4852791;29;20085;-78
2023/04/21 12:05:05;;;;;;;14.30;6.35;;;;;;;;;;4843392;29;20137;-78
2023/04/21 12:07:31;;;;;;;;;;;;;;;;;;4819575;29;20034;-79
2023/04/21 12:09:57;;;;;;;17.83;5.88;;;;;;;;;;4823315;29;19915;-77
2023/04/21 12:12:24;;;;;;;12.20;6.45;;;;;;;;;;4808562;29;20042;-78
2023/04/21 12:14:52;;;;;;;26.50;7.57;;;;;;;;;;4804384;29;20031;-78
2023/04/21 12:17:18;;;;;;;11.07;5.60;;;;;;;;;;4819352;29;20034;-78
2023/04/21 12:19:44;;;;;;;13.00;5.78;;;;;;;;;;4821613;29;20477;-77
2023/04/21 12:22:12;;;;;;;9.05;5.65;;;;;;;;;;4822143;29;20045;-78
2023/04/21 12:24:38;;;;;;;11.27;5.55;;;;;;;;;;4821199;29;20042;-77
2023/04/21 12:27:05;;;;;;;10.02;5.13;;;;;;;;;;4820615;29;20117;-77
2023/04/21 12:29:31;;;;;;;9.52;4.47;;;;;;;;;;4822363;29;20030;-77
2023/04/21 12:31:57;;;;;;;11.43;4.55;;;;;;;;;;4817795;29;20302;-77
2023/04/21 12:34:23;;;;;;;8.85;4.35;;;;;;;;;;4824269;29;20396;-77
2023/04/21 12:36:49;;;;;;;8.82;4.93;;;;;;;;;;4819845;29;20417;-77
2023/04/21 12:39:17;;;;;;;9.27;4.40;;;;;;;;;;4822397;29;20476;-77
2023/04/21 12:41:44;;;;;;;10.07;4.53;;;;;;;;;;4822095;29;20476;-78
2023/04/21 12:44:11;;;;;;;10.07;4.28;;;;;;;;;;4801988;29;20055;-78
2023/04/21 12:46:37;;;;;;;11.90;4.18;;;;;;;;;;4817147;29;20047;-78
2023/04/21 12:49:05;;;;;;;6.85;4.32;;;;;;;;;;4803804;29;20034;-78
2023/04/21 12:51:31;;;;;;;14.07;4.53;;;;;;;;;;4814327;29;20045;-78
2023/04/21 12:53:57;;;;;;;6.75;3.28;;;;;;;;;;4809710;29;20042;-78
2023/04/21 12:56:23;;;;;;;11.95;3.88;;;;;;;;;;4813720;29;20037;-80
2023/04/21 12:58:49;;;;;;;11.90;4.18;;;;;;;;;;4804468;29;20552;-79
2023/04/21 13:01:15;;;;;;;15.15;4.00;;;;;;;;;;4813328;29;20050;-81
2023/04/21 13:03:42;;;;;;;12.38;3.63;;;;;;;;;;4813850;29;20491;-78
2023/04/21 13:06:08;;;;;;;10.57;4.53;;;;;;;;;;4812122;29;20067;-79
2023/04/21 13:08:35;;;;;;;14.73;4.40;;;;;;;;;;4826293;29;20117;-81
2023/04/21 13:11:04;;;;;;;8.50;3.65;;;;;;;;;;4839703;29;20481;-76
2023/04/21 13:13:30;;;;;;;12.50;4.22;;;;;;;;;;4827900;29;20034;-82
2023/04/21 13:15:56;;;;;;;11.88;3.50;;;;;;;;;;4810338;29;20035;-76
2023/04/21 13:18:22;;;;;;;9.63;3.35;;;;;;;;;;4830198;29;20032;-79
2023/04/21 13:20:48;;;;;;;10.05;3.50;;;;;;;;;;4819523;29;20471;-79
2023/04/21 13:23:15;;;;;;;9.43;3.30;;;;;;;;;;4820625;29;20150;-78
2023/04/21 13:25:43;;;;;;;12.57;3.78;;;;;;;;;;4838961;29;20035;-75
2023/04/21 13:28:09;;;;;;;10.60;3.20;;;;;;;;;;4813280;29;20490;-78
2023/04/21 13:30:35;;;;;;;13.35;4.00;;;;;;;;;;4820192;29;20518;-74
2023/04/21 13:33:02;;;;;;;8.35;2.72;;;;;;;;;;4820263;29;20125;-76
2023/04/21 13:35:28;;;;;;;7.43;3.08;;;;;;;;;;4818551;29;20035;-80
2023/04/21 13:37:55;;;;;;;6.45;2.90;;;;;;;;;;4818797;29;20469;-78
2023/04/21 13:40:21;;;;;;;8.55;4.75;;;;;;;;;;4820970;29;20038;-78
2023/04/21 13:42:47;;;;;;;15.10;4.82;;;;;;;;;;4820622;29;20098;-77
2023/04/21 13:45:13;;;;;;;10.57;3.58;;;;;;;;;;4812982;29;20036;-80
2023/04/21 13:47:40;;;;;;;8.10;3.83;;;;;;;;;;4811821;29;20446;-76
2023/04/21 13:50:06;;;;;;;12.50;4.28;;;;;;;;;;4816463;29;20063;-78
2023/04/21 13:52:34;;;;;;;8.55;4.10;;;;;;;;;;4818280;29;20117;-79
2023/04/21 13:55:00;;;;;;;21.88;4.38;;;;;;;;;;4816326;29;20091;-78
2023/04/21 13:57:27;;;;;;;9.90;4.75;;;;;;;;;;4833918;29;20452;-80
2023/04/21 13:59:53;;;;;;;11.07;3.60;;;;;;;;;;4819577;29;20764;-78
2023/04/21 14:02:21;;;;;;;10.45;4.07;;;;;;;;;;4812533;29;20083;-81
2023/04/21 14:04:47;;;;;;;11.57;3.42;;;;;;;;;;4830927;29;20051;-81
2023/04/21 14:07:16;;;;;;;13.23;3.33;;;;;;;;;;4850633;29;20029;-81
2023/04/21 14:09:42;;;;;;;9.82;3.67;;;;;;;;;;4849112;29;20040;-77
2023/04/21 14:12:10;;;;;;;9.32;3.40;;;;;;;;;;4838081;29;20032;-77
2023/04/21 14:14:36;;;;;;;10.68;3.55;;;;;;;;;;4839509;29;20094;-76
2023/04/21 14:17:02;;;;;;;12.73;2.80;;;;;;;;;;4854070;29;20506;-78
2023/04/21 14:19:31;;;;;;;5.63;3.15;;;;;;;;;;4855155;29;20038;-77
2023/04/21 14:21:58;;;;;;;9.27;2.83;;;;;;;;;;4859709;29;20037;-77
2023/04/21 14:24:27;;;;;;;9.70;3.20;;;;;;;;;;4843912;29;20096;-77